sensor_id;sensor_type;location;lat;lon;timestamp;P1;durP1;ratioP1;P2;durP2;ratioP2
37201;SDS011;37799;52.390;6.136;2023-02-21T00:01:46;13.68;;;5.03;;
37201;SDS011;37799;52.390;6.136;2023-02-21T00:04:30;15.10;;;6.03;;
37201;SDS011;37799;52.390;6.136;2023-02-21T00:07:14;15.77;;;4.63;;
37201;SDS011;37799;52.390;6.136;2023-02-21T00:09:58;19.50;;;5.65;;
37201;SDS011;37799;52.390;6.136;2023-02-21T00:12:42;11.75;;;4.03;;
37201;SDS011;37799;52.390;6.136;2023-02-21T00:15:26;18.00;;;5.53;;
37201;SDS011;37799;52.390;6.136;2023-02-21T00:18:09;16.80;;;5.40;;
37201;SDS011;37799;52.390;6.136;2023-02-21T00:20:53;17.02;;;4.88;;
37201;SDS011;37799;52.390;6.136;2023-02-21T00:23:37;12.07;;;3.83;;
37201;SDS011;37799;52.390;6.136;2023-02-21T00:26:22;19.85;;;5.57;;
37201;SDS011;37799;52.390;6.136;2023-02-21T00:29:06;16.33;;;5.65;;
37201;SDS011;37799;52.390;6.136;2023-02-21T00:31:51;19.83;;;6.80;;
37201;SDS011;37799;52.390;6.136;2023-02-21T00:34:36;13.48;;;4.65;;
37201;SDS011;37799;52.390;6.136;2023-02-21T00:37:20;16.92;;;5.47;;
37201;SDS011;37799;52.390;6.136;2023-02-21T00:40:04;16.95;;;6.45;;
37201;SDS011;37799;52.390;6.136;2023-02-21T00:42:48;16.80;;;6.18;;
37201;SDS011;37799;52.390;6.136;2023-02-21T00:45:32;18.00;;;5.30;;
37201;SDS011;37799;52.390;6.136;2023-02-21T00:48:20;16.35;;;4.95;;
37201;SDS011;37799;52.390;6.136;2023-02-21T00:51:05;13.48;;;4.90;;
37201;SDS011;37799;52.390;6.136;2023-02-21T00:53:49;17.08;;;5.57;;
37201;SDS011;37799;52.390;6.136;2023-02-21T00:56:33;16.35;;;6.07;;
37201;SDS011;37799;52.390;6.136;2023-02-21T00:59:17;16.50;;;5.25;;
37201;SDS011;37799;52.390;6.136;2023-02-21T01:02:01;26.13;;;6.15;;
37201;SDS011;37799;52.390;6.136;2023-02-21T01:04:45;21.17;;;5.85;;
37201;SDS011;37799;52.390;6.136;2023-02-21T01:07:29;13.30;;;4.82;;
37201;SDS011;37799;52.390;6.136;2023-02-21T01:10:13;19.55;;;5.50;;
37201;SDS011;37799;52.390;6.136;2023-02-21T01:12:57;19.63;;;5.88;;
37201;SDS011;37799;52.390;6.136;2023-02-21T01:15:42;12.93;;;4.18;;
37201;SDS011;37799;52.390;6.136;2023-02-21T01:18:26;16.80;;;5.78;;
37201;SDS011;37799;52.390;6.136;2023-02-21T01:21:11;14.60;;;4.53;;
37201;SDS011;37799;52.390;6.136;2023-02-21T01:23:59;20.48;;;5.50;;
37201;SDS011;37799;52.390;6.136;2023-02-21T01:26:44;22.30;;;6.72;;
37201;SDS011;37799;52.390;6.136;2023-02-21T01:29:28;18.98;;;4.72;;
37201;SDS011;37799;52.390;6.136;2023-02-21T01:32:12;16.85;;;4.85;;
37201;SDS011;37799;52.390;6.136;2023-02-21T01:34:56;21.10;;;5.00;;
37201;SDS011;37799;52.390;6.136;2023-02-21T01:37:40;17.70;;;6.72;;
37201;SDS011;37799;52.390;6.136;2023-02-21T01:40:25;16.67;;;5.63;;
37201;SDS011;37799;52.390;6.136;2023-02-21T01:43:20;12.98;;;4.80;;
37201;SDS011;37799;52.390;6.136;2023-02-21T01:46:08;18.58;;;6.30;;
37201;SDS011;37799;52.390;6.136;2023-02-21T01:48:54;17.25;;;4.80;;
37201;SDS011;37799;52.390;6.136;2023-02-21T01:51:40;15.00;;;4.85;;
37201;SDS011;37799;52.390;6.136;2023-02-21T01:54:29;14.55;;;5.40;;
37201;SDS011;37799;52.390;6.136;2023-02-21T01:57:17;18.83;;;6.22;;
37201;SDS011;37799;52.390;6.136;2023-02-21T02:00:04;15.00;;;4.90;;
37201;SDS011;37799;52.390;6.136;2023-02-21T02:02:58;16.33;;;6.05;;
37201;SDS011;37799;52.390;6.136;2023-02-21T02:05:45;14.80;;;4.97;;
37201;SDS011;37799;52.390;6.136;2023-02-21T02:08:32;16.67;;;6.13;;
37201;SDS011;37799;52.390;6.136;2023-02-21T02:11:40;15.32;;;5.20;;
37201;SDS011;37799;52.390;6.136;2023-02-21T02:14:40;16.58;;;4.50;;
37201;SDS011;37799;52.390;6.136;2023-02-21T02:26:27;18.70;;;6.13;;
37201;SDS011;37799;52.390;6.136;2023-02-21T02:32:36;14.70;;;5.18;;
37201;SDS011;37799;52.390;6.136;2023-02-21T02:35:27;19.25;;;5.07;;
37201;SDS011;37799;52.390;6.136;2023-02-21T02:37:55;16.60;;;5.28;;
37201;SDS011;37799;52.390;6.136;2023-02-21T02:43:14;21.15;;;6.28;;
37201;SDS011;37799;52.390;6.136;2023-02-21T02:45:57;17.85;;;5.20;;
37201;SDS011;37799;52.390;6.136;2023-02-21T02:48:28;19.88;;;6.55;;
37201;SDS011;37799;52.390;6.136;2023-02-21T02:50:57;18.38;;;5.95;;
37201;SDS011;37799;52.390;6.136;2023-02-21T02:53:27;24.63;;;5.95;;
37201;SDS011;37799;52.390;6.136;2023-02-21T02:55:58;18.52;;;5.97;;
37201;SDS011;37799;52.390;6.136;2023-02-21T02:58:27;15.77;;;5.80;;
37201;SDS011;37799;52.390;6.136;2023-02-21T03:15:51;19.90;;;6.25;;
37201;SDS011;37799;52.390;6.136;2023-02-21T03:18:26;18.70;;;6.38;;
37201;SDS011;37799;52.390;6.136;2023-02-21T03:21:04;17.75;;;5.97;;
37201;SDS011;37799;52.390;6.136;2023-02-21T03:23:34;18.33;;;6.22;;
37201;SDS011;37799;52.390;6.136;2023-02-21T03:26:03;19.83;;;5.72;;
37201;SDS011;37799;52.390;6.136;2023-02-21T03:28:32;24.10;;;6.97;;
37201;SDS011;37799;52.390;6.136;2023-02-21T03:30:59;24.38;;;6.20;;
37201;SDS011;37799;52.390;6.136;2023-02-21T03:33:27;18.65;;;5.78;;
37201;SDS011;37799;52.390;6.136;2023-02-21T03:35:52;19.58;;;7.07;;
37201;SDS011;37799;52.390;6.136;2023-02-21T03:38:18;17.67;;;5.57;;
37201;SDS011;37799;52.390;6.136;2023-02-21T03:40:43;17.15;;;6.10;;
37201;SDS011;37799;52.390;6.136;2023-02-21T03:43:09;19.77;;;5.50;;
37201;SDS011;37799;52.390;6.136;2023-02-21T03:45:35;17.13;;;6.40;;
37201;SDS011;37799;52.390;6.136;2023-02-21T03:48:01;19.58;;;5.60;;
37201;SDS011;37799;52.390;6.136;2023-02-21T03:50:27;17.08;;;5.20;;
37201;SDS011;37799;52.390;6.136;2023-02-21T03:52:52;22.63;;;6.10;;
37201;SDS011;37799;52.390;6.136;2023-02-21T03:55:18;17.17;;;5.50;;
37201;SDS011;37799;52.390;6.136;2023-02-21T03:57:44;18.73;;;6.47;;
37201;SDS011;37799;52.390;6.136;2023-02-21T04:00:10;16.33;;;5.68;;
37201;SDS011;37799;52.390;6.136;2023-02-21T04:02:36;19.80;;;6.47;;
37201;SDS011;37799;52.390;6.136;2023-02-21T04:05:01;21.48;;;5.50;;
37201;SDS011;37799;52.390;6.136;2023-02-21T04:07:27;18.70;;;5.88;;
37201;SDS011;37799;52.390;6.136;2023-02-21T04:09:52;18.60;;;6.25;;
37201;SDS011;37799;52.390;6.136;2023-02-21T04:12:18;17.48;;;6.43;;
37201;SDS011;37799;52.390;6.136;2023-02-21T04:14:43;17.30;;;6.60;;
37201;SDS011;37799;52.390;6.136;2023-02-21T04:17:09;19.45;;;6.15;;
37201;SDS011;37799;52.390;6.136;2023-02-21T04:19:35;24.60;;;5.80;;
37201;SDS011;37799;52.390;6.136;2023-02-21T04:22:01;17.15;;;5.60;;
37201;SDS011;37799;52.390;6.136;2023-02-21T04:24:26;21.05;;;5.57;;
37201;SDS011;37799;52.390;6.136;2023-02-21T04:26:52;18.73;;;5.97;;
37201;SDS011;37799;52.390;6.136;2023-02-21T04:29:18;20.40;;;6.70;;
37201;SDS011;37799;52.390;6.136;2023-02-21T04:31:43;21.77;;;5.80;;
37201;SDS011;37799;52.390;6.136;2023-02-21T04:34:09;23.40;;;6.05;;
37201;SDS011;37799;52.390;6.136;2023-02-21T04:36:34;19.65;;;6.07;;
37201;SDS011;37799;52.390;6.136;2023-02-21T04:39:02;17.92;;;5.72;;
37201;SDS011;37799;52.390;6.136;2023-02-21T04:41:28;21.23;;;6.32;;
37201;SDS011;37799;52.390;6.136;2023-02-21T04:43:53;23.08;;;5.63;;
37201;SDS011;37799;52.390;6.136;2023-02-21T04:46:18;18.63;;;5.47;;
37201;SDS011;37799;52.390;6.136;2023-02-21T04:48:47;15.27;;;5.30;;
37201;SDS011;37799;52.390;6.136;2023-02-21T04:51:15;19.65;;;5.45;;
37201;SDS011;37799;52.390;6.136;2023-02-21T04:53:43;17.25;;;5.47;;
37201;SDS011;37799;52.390;6.136;2023-02-21T04:56:11;24.92;;;7.15;;
37201;SDS011;37799;52.390;6.136;2023-02-21T04:58:37;19.50;;;6.35;;
37201;SDS011;37799;52.390;6.136;2023-02-21T05:01:02;20.40;;;6.65;;
37201;SDS011;37799;52.390;6.136;2023-02-21T05:03:28;14.77;;;4.68;;
37201;SDS011;37799;52.390;6.136;2023-02-21T05:05:53;23.67;;;7.07;;
37201;SDS011;37799;52.390;6.136;2023-02-21T05:08:18;24.23;;;6.40;;
37201;SDS011;37799;52.390;6.136;2023-02-21T05:10:44;18.15;;;5.97;;
37201;SDS011;37799;52.390;6.136;2023-02-21T05:13:10;19.73;;;6.65;;
37201;SDS011;37799;52.390;6.136;2023-02-21T05:15:35;18.65;;;6.55;;
37201;SDS011;37799;52.390;6.136;2023-02-21T05:18:01;16.35;;;5.97;;
37201;SDS011;37799;52.390;6.136;2023-02-21T05:20:26;21.50;;;6.13;;
37201;SDS011;37799;52.390;6.136;2023-02-21T05:22:52;20.48;;;5.50;;
37201;SDS011;37799;52.390;6.136;2023-02-21T05:25:19;18.10;;;6.32;;
37201;SDS011;37799;52.390;6.136;2023-02-21T05:27:45;19.70;;;6.18;;
37201;SDS011;37799;52.390;6.136;2023-02-21T05:30:12;20.88;;;7.93;;
37201;SDS011;37799;52.390;6.136;2023-02-21T05:32:39;19.75;;;6.30;;
37201;SDS011;37799;52.390;6.136;2023-02-21T05:35:05;19.00;;;7.30;;
37201;SDS011;37799;52.390;6.136;2023-02-21T05:37:32;17.73;;;6.80;;
37201;SDS011;37799;52.390;6.136;2023-02-21T05:39:57;18.92;;;5.70;;
37201;SDS011;37799;52.390;6.136;2023-02-21T05:42:22;26.20;;;8.00;;
37201;SDS011;37799;52.390;6.136;2023-02-21T05:44:48;26.00;;;7.70;;
37201;SDS011;37799;52.390;6.136;2023-02-21T05:47:13;21.42;;;7.60;;
37201;SDS011;37799;52.390;6.136;2023-02-21T05:49:39;18.83;;;6.05;;
37201;SDS011;37799;52.390;6.136;2023-02-21T05:52:05;20.50;;;6.30;;
37201;SDS011;37799;52.390;6.136;2023-02-21T05:54:31;20.88;;;7.15;;
37201;SDS011;37799;52.390;6.136;2023-02-21T05:56:57;25.38;;;6.78;;
37201;SDS011;37799;52.390;6.136;2023-02-21T05:59:22;22.20;;;8.50;;
37201;SDS011;37799;52.390;6.136;2023-02-21T06:01:48;23.33;;;7.72;;
37201;SDS011;37799;52.390;6.136;2023-02-21T06:04:14;20.92;;;7.20;;
37201;SDS011;37799;52.390;6.136;2023-02-21T06:06:40;21.42;;;6.28;;
37201;SDS011;37799;52.390;6.136;2023-02-21T06:09:06;25.80;;;7.18;;
37201;SDS011;37799;52.390;6.136;2023-02-21T06:11:32;21.98;;;6.90;;
37201;SDS011;37799;52.390;6.136;2023-02-21T06:13:59;27.17;;;7.03;;
37201;SDS011;37799;52.390;6.136;2023-02-21T06:16:30;23.60;;;6.95;;
37201;SDS011;37799;52.390;6.136;2023-02-21T06:18:57;18.83;;;6.80;;
37201;SDS011;37799;52.390;6.136;2023-02-21T06:21:23;21.20;;;8.40;;
37201;SDS011;37799;52.390;6.136;2023-02-21T06:23:48;21.25;;;6.80;;
37201;SDS011;37799;52.390;6.136;2023-02-21T06:26:14;22.13;;;7.40;;
37201;SDS011;37799;52.390;6.136;2023-02-21T06:28:40;23.85;;;8.23;;
37201;SDS011;37799;52.390;6.136;2023-02-21T06:31:06;20.63;;;7.43;;
37201;SDS011;37799;52.390;6.136;2023-02-21T06:33:32;26.10;;;7.63;;
37201;SDS011;37799;52.390;6.136;2023-02-21T06:35:57;25.13;;;8.13;;
37201;SDS011;37799;52.390;6.136;2023-02-21T06:38:23;24.33;;;7.30;;
37201;SDS011;37799;52.390;6.136;2023-02-21T06:40:48;28.17;;;7.47;;
37201;SDS011;37799;52.390;6.136;2023-02-21T06:43:13;23.10;;;6.55;;
37201;SDS011;37799;52.390;6.136;2023-02-21T06:45:39;22.88;;;7.85;;
37201;SDS011;37799;52.390;6.136;2023-02-21T06:48:04;26.25;;;8.63;;
37201;SDS011;37799;52.390;6.136;2023-02-21T06:50:31;26.77;;;7.70;;
37201;SDS011;37799;52.390;6.136;2023-02-21T06:52:58;21.55;;;7.22;;
37201;SDS011;37799;52.390;6.136;2023-02-21T06:55:23;22.95;;;7.32;;
37201;SDS011;37799;52.390;6.136;2023-02-21T06:57:49;27.58;;;8.43;;
37201;SDS011;37799;52.390;6.136;2023-02-21T07:00:17;22.85;;;7.60;;
37201;SDS011;37799;52.390;6.136;2023-02-21T07:02:43;26.85;;;7.15;;
37201;SDS011;37799;52.390;6.136;2023-02-21T07:05:08;21.13;;;7.00;;
37201;SDS011;37799;52.390;6.136;2023-02-21T07:07:35;25.23;;;8.07;;
37201;SDS011;37799;52.390;6.136;2023-02-21T07:10:01;26.08;;;7.47;;
37201;SDS011;37799;52.390;6.136;2023-02-21T07:12:26;27.90;;;9.30;;
37201;SDS011;37799;52.390;6.136;2023-02-21T07:14:52;26.73;;;8.93;;
37201;SDS011;37799;52.390;6.136;2023-02-21T07:17:18;29.73;;;8.32;;
37201;SDS011;37799;52.390;6.136;2023-02-21T07:19:44;20.85;;;7.22;;
37201;SDS011;37799;52.390;6.136;2023-02-21T07:22:09;32.72;;;8.15;;
37201;SDS011;37799;52.390;6.136;2023-02-21T07:24:35;26.90;;;8.07;;
37201;SDS011;37799;52.390;6.136;2023-02-21T07:27:00;28.27;;;7.75;;
37201;SDS011;37799;52.390;6.136;2023-02-21T07:29:25;26.00;;;7.07;;
37201;SDS011;37799;52.390;6.136;2023-02-21T07:31:51;30.02;;;9.15;;
37201;SDS011;37799;52.390;6.136;2023-02-21T07:34:16;21.30;;;7.70;;
37201;SDS011;37799;52.390;6.136;2023-02-21T07:36:43;32.10;;;8.63;;
37201;SDS011;37799;52.390;6.136;2023-02-21T07:39:09;25.67;;;8.88;;
37201;SDS011;37799;52.390;6.136;2023-02-21T07:41:34;23.92;;;7.55;;
37201;SDS011;37799;52.390;6.136;2023-02-21T07:43:59;24.92;;;8.30;;
37201;SDS011;37799;52.390;6.136;2023-02-21T07:46:26;27.20;;;8.43;;
37201;SDS011;37799;52.390;6.136;2023-02-21T07:48:52;23.08;;;8.27;;
37201;SDS011;37799;52.390;6.136;2023-02-21T07:51:17;26.30;;;7.18;;
37201;SDS011;37799;52.390;6.136;2023-02-21T07:53:42;31.13;;;8.35;;
37201;SDS011;37799;52.390;6.136;2023-02-21T07:56:08;28.02;;;7.75;;
37201;SDS011;37799;52.390;6.136;2023-02-21T07:58:33;23.85;;;7.70;;
37201;SDS011;37799;52.390;6.136;2023-02-21T08:01:01;25.80;;;7.95;;
37201;SDS011;37799;52.390;6.136;2023-02-21T08:03:28;29.13;;;8.68;;
37201;SDS011;37799;52.390;6.136;2023-02-21T08:05:54;34.38;;;8.05;;
37201;SDS011;37799;52.390;6.136;2023-02-21T08:08:19;26.33;;;7.82;;
37201;SDS011;37799;52.390;6.136;2023-02-21T08:10:44;31.52;;;7.80;;
37201;SDS011;37799;52.390;6.136;2023-02-21T08:13:10;30.52;;;9.68;;
37201;SDS011;37799;52.390;6.136;2023-02-21T08:15:35;25.17;;;8.02;;
37201;SDS011;37799;52.390;6.136;2023-02-21T08:18:01;25.92;;;7.53;;
37201;SDS011;37799;52.390;6.136;2023-02-21T08:20:26;26.08;;;7.53;;
37201;SDS011;37799;52.390;6.136;2023-02-21T08:22:51;26.90;;;8.38;;
37201;SDS011;37799;52.390;6.136;2023-02-21T08:25:16;27.77;;;8.02;;
37201;SDS011;37799;52.390;6.136;2023-02-21T08:27:42;26.42;;;7.47;;
37201;SDS011;37799;52.390;6.136;2023-02-21T08:30:08;23.85;;;8.15;;
37201;SDS011;37799;52.390;6.136;2023-02-21T08:32:40;25.17;;;8.73;;
37201;SDS011;37799;52.390;6.136;2023-02-21T08:35:06;30.67;;;9.27;;
37201;SDS011;37799;52.390;6.136;2023-02-21T08:37:32;29.58;;;9.85;;
37201;SDS011;37799;52.390;6.136;2023-02-21T08:40:00;30.45;;;9.20;;
37201;SDS011;37799;52.390;6.136;2023-02-21T08:42:26;25.73;;;8.43;;
37201;SDS011;37799;52.390;6.136;2023-02-21T08:44:51;27.42;;;9.02;;
37201;SDS011;37799;52.390;6.136;2023-02-21T08:47:17;25.05;;;8.75;;
37201;SDS011;37799;52.390;6.136;2023-02-21T08:49:43;24.45;;;7.90;;
37201;SDS011;37799;52.390;6.136;2023-02-21T08:52:16;32.25;;;9.50;;
37201;SDS011;37799;52.390;6.136;2023-02-21T08:54:42;24.08;;;8.18;;
37201;SDS011;37799;52.390;6.136;2023-02-21T08:57:09;23.08;;;7.20;;
37201;SDS011;37799;52.390;6.136;2023-02-21T08:59:35;23.17;;;8.55;;
37201;SDS011;37799;52.390;6.136;2023-02-21T09:02:08;27.67;;;8.85;;
37201;SDS011;37799;52.390;6.136;2023-02-21T09:04:39;28.48;;;8.32;;
37201;SDS011;37799;52.390;6.136;2023-02-21T09:07:05;22.27;;;7.00;;
37201;SDS011;37799;52.390;6.136;2023-02-21T09:09:30;25.40;;;8.35;;
37201;SDS011;37799;52.390;6.136;2023-02-21T09:11:55;26.83;;;7.28;;
37201;SDS011;37799;52.390;6.136;2023-02-21T09:14:21;23.35;;;7.32;;
37201;SDS011;37799;52.390;6.136;2023-02-21T09:16:46;24.50;;;6.95;;
37201;SDS011;37799;52.390;6.136;2023-02-21T09:19:11;21.98;;;7.88;;
37201;SDS011;37799;52.390;6.136;2023-02-21T09:21:37;26.38;;;8.05;;
37201;SDS011;37799;52.390;6.136;2023-02-21T09:24:09;28.73;;;8.75;;
37201;SDS011;37799;52.390;6.136;2023-02-21T09:26:35;18.75;;;7.05;;
37201;SDS011;37799;52.390;6.136;2023-02-21T09:29:00;23.90;;;7.38;;
37201;SDS011;37799;52.390;6.136;2023-02-21T09:31:25;17.15;;;5.78;;
37201;SDS011;37799;52.390;6.136;2023-02-21T09:33:51;23.98;;;6.68;;
37201;SDS011;37799;52.390;6.136;2023-02-21T09:36:16;25.38;;;7.30;;
37201;SDS011;37799;52.390;6.136;2023-02-21T09:38:47;24.30;;;6.57;;
37201;SDS011;37799;52.390;6.136;2023-02-21T09:41:13;20.80;;;6.25;;
37201;SDS011;37799;52.390;6.136;2023-02-21T09:43:43;23.27;;;5.72;;
37201;SDS011;37799;52.390;6.136;2023-02-21T09:48:44;26.98;;;7.45;;
37201;SDS011;37799;52.390;6.136;2023-02-21T09:51:11;26.63;;;7.28;;
37201;SDS011;37799;52.390;6.136;2023-02-21T09:53:39;20.40;;;7.03;;
37201;SDS011;37799;52.390;6.136;2023-02-21T09:56:11;23.63;;;7.47;;
37201;SDS011;37799;52.390;6.136;2023-02-21T09:58:42;22.58;;;6.47;;
37201;SDS011;37799;52.390;6.136;2023-02-21T10:01:20;18.90;;;5.53;;
37201;SDS011;37799;52.390;6.136;2023-02-21T10:04:10;24.08;;;6.50;;
37201;SDS011;37799;52.390;6.136;2023-02-21T10:10:34;22.08;;;6.57;;
37201;SDS011;37799;52.390;6.136;2023-02-21T10:13:03;23.73;;;7.72;;
37201;SDS011;37799;52.390;6.136;2023-02-21T10:23:32;22.75;;;6.93;;
37201;SDS011;37799;52.390;6.136;2023-02-21T10:26:06;25.33;;;6.93;;
37201;SDS011;37799;52.390;6.136;2023-02-21T10:28:34;28.30;;;8.15;;
37201;SDS011;37799;52.390;6.136;2023-02-21T10:31:04;22.90;;;7.10;;
37201;SDS011;37799;52.390;6.136;2023-02-21T10:33:34;20.42;;;6.70;;
37201;SDS011;37799;52.390;6.136;2023-02-21T10:36:08;26.05;;;6.95;;
37201;SDS011;37799;52.390;6.136;2023-02-21T10:38:35;24.05;;;7.32;;
37201;SDS011;37799;52.390;6.136;2023-02-21T10:41:03;28.23;;;8.52;;
37201;SDS011;37799;52.390;6.136;2023-02-21T10:43:39;20.25;;;6.55;;
37201;SDS011;37799;52.390;6.136;2023-02-21T10:48:46;27.15;;;6.85;;
37201;SDS011;37799;52.390;6.136;2023-02-21T10:51:15;31.33;;;6.95;;
37201;SDS011;37799;52.390;6.136;2023-02-21T10:53:45;30.67;;;8.77;;
37201;SDS011;37799;52.390;6.136;2023-02-21T10:58:47;28.10;;;7.88;;
37201;SDS011;37799;52.390;6.136;2023-02-21T11:03:50;29.73;;;6.68;;
37201;SDS011;37799;52.390;6.136;2023-02-21T11:08:58;26.60;;;8.40;;
37201;SDS011;37799;52.390;6.136;2023-02-21T11:11:38;28.45;;;7.68;;
37201;SDS011;37799;52.390;6.136;2023-02-21T11:16:49;27.20;;;6.95;;
37201;SDS011;37799;52.390;6.136;2023-02-21T11:19:33;27.80;;;7.85;;
37201;SDS011;37799;52.390;6.136;2023-02-21T11:22:06;25.40;;;7.20;;
37201;SDS011;37799;52.390;6.136;2023-02-21T11:24:33;29.00;;;6.60;;
37201;SDS011;37799;52.390;6.136;2023-02-21T11:27:08;24.45;;;6.38;;
37201;SDS011;37799;52.390;6.136;2023-02-21T11:29:33;27.15;;;7.10;;
37201;SDS011;37799;52.390;6.136;2023-02-21T11:31:59;28.42;;;8.10;;
37201;SDS011;37799;52.390;6.136;2023-02-21T11:34:35;21.80;;;6.70;;
37201;SDS011;37799;52.390;6.136;2023-02-21T11:37:02;26.02;;;9.32;;
37201;SDS011;37799;52.390;6.136;2023-02-21T11:39:31;27.27;;;7.15;;
37201;SDS011;37799;52.390;6.136;2023-02-21T11:42:00;24.23;;;7.28;;
37201;SDS011;37799;52.390;6.136;2023-02-21T11:47:12;28.08;;;7.95;;
37201;SDS011;37799;52.390;6.136;2023-02-21T11:49:49;28.73;;;6.07;;
37201;SDS011;37799;52.390;6.136;2023-02-21T11:52:25;23.92;;;6.43;;
37201;SDS011;37799;52.390;6.136;2023-02-21T11:54:55;26.13;;;7.68;;
37201;SDS011;37799;52.390;6.136;2023-02-21T11:57:24;27.83;;;6.50;;
37201;SDS011;37799;52.390;6.136;2023-02-21T12:00:07;24.30;;;7.35;;
37201;SDS011;37799;52.390;6.136;2023-02-21T12:05:58;26.50;;;7.80;;
37201;SDS011;37799;52.390;6.136;2023-02-21T12:08:36;23.02;;;6.43;;
37201;SDS011;37799;52.390;6.136;2023-02-21T12:14:08;20.25;;;6.72;;
37201;SDS011;37799;52.390;6.136;2023-02-21T12:33:00;24.05;;;6.80;;
37201;SDS011;37799;52.390;6.136;2023-02-21T12:35:44;22.42;;;5.88;;
37201;SDS011;37799;52.390;6.136;2023-02-21T12:41:04;19.98;;;6.30;;
37201;SDS011;37799;52.390;6.136;2023-02-21T12:51:33;22.17;;;6.15;;
37201;SDS011;37799;52.390;6.136;2023-02-21T12:54:04;28.38;;;6.75;;
37201;SDS011;37799;52.390;6.136;2023-02-21T13:01:34;19.03;;;5.17;;
37201;SDS011;37799;52.390;6.136;2023-02-21T13:04:21;24.15;;;6.68;;
37201;SDS011;37799;52.390;6.136;2023-02-21T13:07:09;20.92;;;5.05;;
37201;SDS011;37799;52.390;6.136;2023-02-21T13:09:44;21.67;;;5.97;;
37201;SDS011;37799;52.390;6.136;2023-02-21T13:12:16;19.10;;;5.53;;
37201;SDS011;37799;52.390;6.136;2023-02-21T13:14:55;18.92;;;5.25;;
37201;SDS011;37799;52.390;6.136;2023-02-21T13:17:24;16.48;;;5.07;;
37201;SDS011;37799;52.390;6.136;2023-02-21T13:19:54;21.83;;;5.03;;
37201;SDS011;37799;52.390;6.136;2023-02-21T13:22:25;22.02;;;6.15;;
37201;SDS011;37799;52.390;6.136;2023-02-21T13:25:33;19.77;;;5.43;;
37201;SDS011;37799;52.390;6.136;2023-02-21T13:28:21;20.63;;;5.93;;
37201;SDS011;37799;52.390;6.136;2023-02-21T13:31:06;17.45;;;5.50;;
37201;SDS011;37799;52.390;6.136;2023-02-21T13:33:50;24.48;;;5.18;;
37201;SDS011;37799;52.390;6.136;2023-02-21T13:36:28;17.80;;;4.72;;
37201;SDS011;37799;52.390;6.136;2023-02-21T13:41:47;20.25;;;4.50;;
37201;SDS011;37799;52.390;6.136;2023-02-21T13:44:17;13.82;;;5.03;;
37201;SDS011;37799;52.390;6.136;2023-02-21T13:55:26;14.75;;;3.50;;
37201;SDS011;37799;52.390;6.136;2023-02-21T14:02:56;13.95;;;3.78;;
37201;SDS011;37799;52.390;6.136;2023-02-21T14:05:22;13.88;;;4.30;;
37201;SDS011;37799;52.390;6.136;2023-02-21T14:07:58;20.50;;;5.03;;
37201;SDS011;37799;52.390;6.136;2023-02-21T14:10:27;16.02;;;4.72;;
37201;SDS011;37799;52.390;6.136;2023-02-21T14:13:02;12.75;;;3.33;;
37201;SDS011;37799;52.390;6.136;2023-02-21T14:15:45;16.50;;;3.88;;
37201;SDS011;37799;52.390;6.136;2023-02-21T14:18:14;11.60;;;3.38;;
37201;SDS011;37799;52.390;6.136;2023-02-21T14:20:44;15.18;;;4.10;;
37201;SDS011;37799;52.390;6.136;2023-02-21T14:23:13;13.88;;;3.08;;
37201;SDS011;37799;52.390;6.136;2023-02-21T14:25:41;13.65;;;3.40;;
37201;SDS011;37799;52.390;6.136;2023-02-21T14:34:16;13.73;;;3.90;;
37201;SDS011;37799;52.390;6.136;2023-02-21T14:36:47;12.10;;;3.38;;
37201;SDS011;37799;52.390;6.136;2023-02-21T14:39:14;17.33;;;4.20;;
37201;SDS011;37799;52.390;6.136;2023-02-21T14:44:23;12.20;;;3.30;;
37201;SDS011;37799;52.390;6.136;2023-02-21T14:47:10;13.65;;;3.65;;
37201;SDS011;37799;52.390;6.136;2023-02-21T15:03:21;16.23;;;4.22;;
37201;SDS011;37799;52.390;6.136;2023-02-21T15:05:58;12.88;;;4.03;;
37201;SDS011;37799;52.390;6.136;2023-02-21T15:08:29;9.45;;;2.72;;
37201;SDS011;37799;52.390;6.136;2023-02-21T15:11:13;13.35;;;3.35;;
37201;SDS011;37799;52.390;6.136;2023-02-21T15:13:41;18.17;;;3.22;;
37201;SDS011;37799;52.390;6.136;2023-02-21T15:16:07;15.52;;;2.80;;
37201;SDS011;37799;52.390;6.136;2023-02-21T15:18:39;17.30;;;3.85;;
37201;SDS011;37799;52.390;6.136;2023-02-21T15:21:20;14.30;;;3.63;;
37201;SDS011;37799;52.390;6.136;2023-02-21T15:23:46;16.80;;;3.55;;
37201;SDS011;37799;52.390;6.136;2023-02-21T15:26:27;14.20;;;3.45;;
37201;SDS011;37799;52.390;6.136;2023-02-21T15:29:11;17.33;;;3.65;;
37201;SDS011;37799;52.390;6.136;2023-02-21T15:31:42;9.35;;;2.63;;
37201;SDS011;37799;52.390;6.136;2023-02-21T15:34:14;13.98;;;3.33;;
37201;SDS011;37799;52.390;6.136;2023-02-21T15:36:42;15.10;;;3.30;;
37201;SDS011;37799;52.390;6.136;2023-02-21T15:39:28;14.82;;;3.47;;
37201;SDS011;37799;52.390;6.136;2023-02-21T15:41:58;15.00;;;3.75;;
37201;SDS011;37799;52.390;6.136;2023-02-21T15:44:27;11.50;;;3.00;;
37201;SDS011;37799;52.390;6.136;2023-02-21T15:47:09;11.82;;;2.95;;
37201;SDS011;37799;52.390;6.136;2023-02-21T15:52:30;12.38;;;3.17;;
37201;SDS011;37799;52.390;6.136;2023-02-21T15:57:55;12.05;;;2.78;;
37201;SDS011;37799;52.390;6.136;2023-02-21T16:00:31;10.57;;;2.85;;
37201;SDS011;37799;52.390;6.136;2023-02-21T16:06:20;12.75;;;2.67;;
37201;SDS011;37799;52.390;6.136;2023-02-21T16:08:55;10.00;;;2.67;;
37201;SDS011;37799;52.390;6.136;2023-02-21T16:11:47;17.77;;;3.58;;
37201;SDS011;37799;52.390;6.136;2023-02-21T16:14:20;11.85;;;2.35;;
37201;SDS011;37799;52.390;6.136;2023-02-21T16:16:49;12.00;;;2.78;;
37201;SDS011;37799;52.390;6.136;2023-02-21T16:19:21;13.18;;;2.67;;
37201;SDS011;37799;52.390;6.136;2023-02-21T16:21:47;12.30;;;2.60;;
37201;SDS011;37799;52.390;6.136;2023-02-21T16:24:15;11.85;;;2.50;;
37201;SDS011;37799;52.390;6.136;2023-02-21T16:27:04;10.00;;;2.35;;
37201;SDS011;37799;52.390;6.136;2023-02-21T16:29:33;14.88;;;2.95;;
37201;SDS011;37799;52.390;6.136;2023-02-21T16:31:59;12.70;;;3.30;;
37201;SDS011;37799;52.390;6.136;2023-02-21T16:34:25;14.55;;;3.40;;
37201;SDS011;37799;52.390;6.136;2023-02-21T16:36:59;10.13;;;2.33;;
37201;SDS011;37799;52.390;6.136;2023-02-21T16:39:28;11.27;;;3.05;;
37201;SDS011;37799;52.390;6.136;2023-02-21T16:41:54;11.57;;;2.17;;
37201;SDS011;37799;52.390;6.136;2023-02-21T16:44:20;9.48;;;2.50;;
37201;SDS011;37799;52.390;6.136;2023-02-21T16:46:45;8.90;;;1.88;;
37201;SDS011;37799;52.390;6.136;2023-02-21T16:49:10;6.75;;;1.67;;
37201;SDS011;37799;52.390;6.136;2023-02-21T16:51:36;8.40;;;2.13;;
37201;SDS011;37799;52.390;6.136;2023-02-21T16:54:05;10.05;;;1.80;;
37201;SDS011;37799;52.390;6.136;2023-02-21T16:56:30;12.65;;;2.53;;
37201;SDS011;37799;52.390;6.136;2023-02-21T16:58:55;9.23;;;2.58;;
37201;SDS011;37799;52.390;6.136;2023-02-21T17:01:28;8.77;;;2.05;;
37201;SDS011;37799;52.390;6.136;2023-02-21T17:03:56;10.55;;;3.17;;
37201;SDS011;37799;52.390;6.136;2023-02-21T17:06:22;10.50;;;2.22;;
37201;SDS011;37799;52.390;6.136;2023-02-21T17:08:49;9.43;;;2.17;;
37201;SDS011;37799;52.390;6.136;2023-02-21T17:11:15;10.18;;;2.20;;
37201;SDS011;37799;52.390;6.136;2023-02-21T17:13:40;9.23;;;2.55;;
37201;SDS011;37799;52.390;6.136;2023-02-21T17:16:05;9.63;;;2.22;;
37201;SDS011;37799;52.390;6.136;2023-02-21T17:18:31;12.73;;;2.38;;
37201;SDS011;37799;52.390;6.136;2023-02-21T17:20:57;12.43;;;3.10;;
37201;SDS011;37799;52.390;6.136;2023-02-21T17:23:23;12.65;;;2.53;;
37201;SDS011;37799;52.390;6.136;2023-02-21T17:25:49;8.57;;;2.63;;
37201;SDS011;37799;52.390;6.136;2023-02-21T17:28:14;10.65;;;2.28;;